Impacts METAR Board
IDs:

KMDW - Chicago/Midway Intl, IL, US

Updated at: 2300 UTC 01 Mar 2021
Potential Impact None Slight Moderate High
Time 01/11Z 01/12Z 01/13Z 01/14Z 01/15Z 01/16Z 01/17Z 01/18Z 01/19Z 01/20Z 01/21Z 01/22Z 01/23Z
Temp28 27 26 27 29 31 33 33 34 34 35 34 33
Dewpt20 19 18 17 17 16 17 17 17 16 12 9 10
Altim30.08 30.11 30.13 30.16 30.19 30.20 30.22 30.25 30.26 30.28 30.29 30.30 30.31
VIS10 10 10 10 10 10 10 10 10 10 10 10 10
CIG-- -- 140 250 -- -- -- 39 -- -- -- -- --
CoverCLRFEWBKNBKNFEWFEWFEWBKNSCTSCTFEWFEWFEW
FltCatVFRVFRVFRVFRVFRVFRVFRVFRVFRVFRVFRVFRVFR
WX--------------------------
WDir29028029030032033032020350350350330320
WSpd8 7 9 9 11 9 10 6 11 9 11 9 5
WGst-- -- -- -- -- -- -- -- -- -- 15 -- --
Raw hourly METARs
KMDW 011053Z 29008KT 10SM CLR M02/M07 A3008 RMK AO2 SLP196 T10221067 $
KMDW 011153Z 28007KT 10SM FEW150 FEW250 M03/M07 A3011 RMK AO2 SLP206 70006 T10281072 10011 21028 53023 $
KMDW 011253Z 29009KT 10SM BKN140 BKN250 M03/M08 A3013 RMK AO2 SLP215 T10331078 $
KMDW 011353Z 30009KT 10SM FEW100 SCT140 BKN250 M03/M08 A3016 RMK AO2 SLP226 T10281083
KMDW 011453Z 32011KT 10SM FEW100 FEW140 FEW250 M02/M08 A3019 RMK AO2 SLP233 T10171083 51027
KMDW 011553Z 33009KT 10SM FEW100 FEW140 FEW250 M01/M09 A3020 RMK AO2 SLP238 T10061089
KMDW 011653Z 32010KT 10SM FEW035 FEW090 FEW250 01/M08 A3022 RMK AO2 SLP244 T00061083
KMDW 011753Z 02006KT 10SM BKN039 01/M08 A3025 RMK AO2 SLP254 T00061083 10017 21033 53021
KMDW 011853Z 35011KT 10SM SCT037 01/M08 A3026 RMK AO2 SLP259 T00111083
KMDW 011953Z 35009KT 10SM SCT038 01/M09 A3028 RMK AO2 SLP265 T00111089
KMDW 012053Z 35011G15KT 10SM FEW038 02/M11 A3029 RMK AO2 SLP270 T00171111 51015
KMDW 012153Z 33009KT 10SM FEW038 01/M13 A3030 RMK AO2 SLP274 T00111128
KMDW 012253Z 32005KT 10SM FEW038 01/M12 A3031 RMK AO2 SLP278 T00061122



Page loaded:  23:12 UTC  |   03:12 PM Pacific  |   04:12 PM Mountain  |   05:12 PM Central  |   06:12 PM Eastern

 

ADVISORIES

FORECASTS

FORECASTS

OBSERVATIONS

USER TOOLS

ABOUT US